Time;durP1;ratioP1;P1;durP2;ratioP2;P2;SDS_P1;SDS_P2;PMS_P1;PMS_P2;Temp;Humidity;BMP_temperature;BMP_pressure;BME280_temperature;BME280_humidity;BME280_pressure;Samples;Min_cycle;Max_cycle;Signal;HPM_P1;HPM_P2
2023/06/10 00:00:00;;;;;;;3.10;3.10;;;;;;;;;;4956221;28;21031;-69
2023/06/10 00:02:29;;;;;;;6.30;3.30;;;;;;;;;;4955811;28;20473;-70
2023/06/10 00:04:56;;;;;;;4.03;3.67;;;;;;;;;;4955635;28;20768;-70
2023/06/10 00:07:22;;;;;;;3.77;3.67;;;;;;;;;;4954607;28;20430;-69
2023/06/10 00:09:48;;;;;;;4.37;4.17;;;;;;;;;;4954756;28;20427;-70
2023/06/10 00:12:16;;;;;;;3.90;3.63;;;;;;;;;;4954827;28;20460;-69
2023/06/10 00:14:42;;;;;;;3.83;3.57;;;;;;;;;;4969352;28;20569;-70
2023/06/10 00:17:11;;;;;;;3.53;3.33;;;;;;;;;;4955156;28;20418;-69
2023/06/10 00:19:41;;;;;;;3.93;3.63;;;;;;;;;;4955365;28;20960;-69
2023/06/10 00:22:07;;;;;;;3.77;3.47;;;;;;;;;;4955667;28;20455;-70
2023/06/10 00:24:33;;;;;;;4.00;3.70;;;;;;;;;;4955906;28;20411;-69
2023/06/10 00:26:59;;;;;;;2.90;2.90;;;;;;;;;;4955378;28;20423;-69
2023/06/10 00:29:25;;;;;;;3.80;3.60;;;;;;;;;;4955332;28;20503;-70
2023/06/10 00:31:53;;;;;;;3.87;3.70;;;;;;;;;;4955310;28;20422;-70
2023/06/10 00:34:19;;;;;;;4.23;4.00;;;;;;;;;;4955738;28;20415;-69
2023/06/10 00:36:45;;;;;;;3.97;3.77;;;;;;;;;;4955471;28;20410;-69
2023/06/10 00:39:11;;;;;;;3.20;3.10;;;;;;;;;;4955418;28;20481;-69
2023/06/10 00:41:37;;;;;;;5.00;4.10;;;;;;;;;;4970036;28;20449;-70
2023/06/10 00:44:03;;;;;;;3.40;3.30;;;;;;;;;;4955435;28;20466;-70
2023/06/10 00:46:32;;;;;;;4.23;4.03;;;;;;;;;;4954837;28;20425;-69
2023/06/10 00:48:58;;;;;;;5.57;3.70;;;;;;;;;;4954775;28;20982;-70
2023/06/10 00:51:25;;;;;;;3.70;3.60;;;;;;;;;;4955207;28;20438;-69
2023/06/10 00:53:51;;;;;;;3.70;3.50;;;;;;;;;;4954967;28;20954;-70
2023/06/10 00:56:17;;;;;;;4.07;3.93;;;;;;;;;;4969799;28;20455;-70
2023/06/10 00:58:43;;;;;;;3.77;3.53;;;;;;;;;;4955135;28;20423;-70
2023/06/10 01:01:10;;;;;;;4.27;3.83;;;;;;;;;;4955172;28;20442;-69
2023/06/10 01:03:36;;;;;;;4.33;4.13;;;;;;;;;;4955375;28;20457;-69
2023/06/10 01:06:19;;;;;;;4.00;3.73;;;;;;;;;;4955566;28;20423;-70
2023/06/10 01:08:51;;;;;;;6.63;4.07;;;;;;;;;;4955185;28;20439;-69
2023/06/10 01:11:22;;;;;;;4.47;4.23;;;;;;;;;;4954855;28;20753;-69
2023/06/10 01:13:51;;;;;;;4.20;3.80;;;;;;;;;;4955087;28;20407;-69
2023/06/10 01:16:18;;;;;;;3.63;3.53;;;;;;;;;;4954982;28;20423;-69
2023/06/10 01:18:44;;;;;;;3.70;3.40;;;;;;;;;;4955369;28;20415;-70
2023/06/10 01:21:13;;;;;;;4.30;4.00;;;;;;;;;;4958932;28;20418;-69
2023/06/10 01:23:39;;;;;;;3.70;3.60;;;;;;;;;;4958581;28;20422;-68
2023/06/10 01:26:09;;;;;;;4.20;3.50;;;;;;;;;;4958892;28;20517;-69
2023/06/10 01:28:54;;;;;;;3.53;3.33;;;;;;;;;;4958933;28;20955;-70
2023/06/10 01:31:21;;;;;;;3.70;3.60;;;;;;;;;;4959000;28;20438;-69
2023/06/10 01:33:48;;;;;;;3.90;3.70;;;;;;;;;;4973246;28;20989;-70
2023/06/10 01:36:16;;;;;;;3.40;3.30;;;;;;;;;;4958343;28;20434;-70
2023/06/10 01:38:46;;;;;;;3.60;3.40;;;;;;;;;;4973339;28;20820;-71
2023/06/10 01:41:13;;;;;;;4.40;4.07;;;;;;;;;;4959146;28;20433;-70
2023/06/10 01:43:40;;;;;;;3.60;3.50;;;;;;;;;;4958376;28;20414;-68
2023/06/10 01:46:06;;;;;;;4.17;4.07;;;;;;;;;;4958251;28;20450;-69
2023/06/10 01:48:33;;;;;;;4.93;4.23;;;;;;;;;;4958249;28;20474;-70
2023/06/10 01:50:59;;;;;;;3.63;3.53;;;;;;;;;;4958233;28;20899;-69
2023/06/10 01:53:25;;;;;;;3.77;3.67;;;;;;;;;;4958134;28;20433;-68
2023/06/10 01:55:51;;;;;;;3.77;3.57;;;;;;;;;;4958479;28;20770;-68
2023/06/10 01:58:18;;;;;;;5.40;3.33;;;;;;;;;;4958137;28;20430;-68
2023/06/10 02:00:44;;;;;;;3.83;3.70;;;;;;;;;;4957896;28;20569;-69
2023/06/10 02:03:10;;;;;;;3.73;3.03;;;;;;;;;;4958217;28;20450;-69
2023/06/10 02:05:36;;;;;;;3.80;3.70;;;;;;;;;;4958213;28;20454;-68
2023/06/10 02:08:02;;;;;;;3.90;3.80;;;;;;;;;;4958681;28;20427;-69
2023/06/10 02:10:28;;;;;;;3.30;3.23;;;;;;;;;;4958120;28;20437;-69
2023/06/10 02:12:54;;;;;;;3.60;3.40;;;;;;;;;;4957845;28;20498;-69
2023/06/10 02:15:20;;;;;;;3.87;3.67;;;;;;;;;;4958287;28;20427;-68
2023/06/10 02:17:48;;;;;;;3.37;3.03;;;;;;;;;;4957698;28;20482;-68
2023/06/10 02:20:14;;;;;;;3.60;3.50;;;;;;;;;;4957550;28;20942;-69
2023/06/10 02:22:41;;;;;;;3.60;3.50;;;;;;;;;;4957859;28;20419;-68
2023/06/10 02:25:07;;;;;;;3.70;3.60;;;;;;;;;;4957844;28;20844;-69
2023/06/10 02:27:33;;;;;;;4.13;4.03;;;;;;;;;;4957783;28;20997;-69
2023/06/10 02:29:59;;;;;;;4.57;4.30;;;;;;;;;;4957105;28;20923;-68
2023/06/10 02:32:25;;;;;;;3.30;3.10;;;;;;;;;;4956775;28;20434;-68
2023/06/10 02:34:51;;;;;;;4.40;3.60;;;;;;;;;;4957358;28;20509;-69
2023/06/10 02:37:17;;;;;;;4.47;4.27;;;;;;;;;;4958014;28;20487;-68
2023/06/10 02:39:43;;;;;;;3.87;3.60;;;;;;;;;;4957264;28;20470;-69
2023/06/10 02:42:10;;;;;;;3.93;3.40;;;;;;;;;;4957553;28;20427;-68
2023/06/10 02:44:36;;;;;;;7.20;4.07;;;;;;;;;;4972099;28;20566;-68
2023/06/10 02:47:02;;;;;;;3.70;3.50;;;;;;;;;;4956961;28;20868;-69
2023/06/10 02:49:28;;;;;;;3.97;3.67;;;;;;;;;;4957776;28;20416;-70
2023/06/10 02:51:56;;;;;;;4.37;4.00;;;;;;;;;;4956256;29;20903;-68
2023/06/10 02:54:22;;;;;;;3.83;3.73;;;;;;;;;;4957060;28;20462;-69
2023/06/10 02:59:53;;;;;;;4.20;4.00;;;;;;;;;;4956962;29;20489;-68
2023/06/10 03:02:19;;;;;;;4.07;3.97;;;;;;;;;;4956918;28;20411;-69
2023/06/10 03:04:45;;;;;;;3.87;3.77;;;;;;;;;;4957087;28;20490;-68
2023/06/10 03:07:12;;;;;;;3.63;3.50;;;;;;;;;;4957119;28;20891;-69
2023/06/10 03:09:38;;;;;;;3.83;3.63;;;;;;;;;;4956847;28;20899;-68
2023/06/10 03:12:04;;;;;;;4.03;3.50;;;;;;;;;;4957076;28;20422;-69
2023/06/10 03:14:30;;;;;;;3.70;3.60;;;;;;;;;;4956936;28;20468;-69
2023/06/10 03:16:56;;;;;;;3.77;3.30;;;;;;;;;;4957146;28;20783;-68
2023/06/10 03:19:23;;;;;;;3.83;3.63;;;;;;;;;;4956834;28;20463;-68
2023/06/10 03:21:50;;;;;;;3.80;3.50;;;;;;;;;;4956535;28;20903;-68
2023/06/10 03:24:16;;;;;;;4.10;3.83;;;;;;;;;;4956548;28;20451;-69
2023/06/10 03:26:42;;;;;;;3.87;3.70;;;;;;;;;;4956392;28;20946;-68
2023/06/10 03:29:08;;;;;;;4.83;3.60;;;;;;;;;;4956952;28;20419;-68
2023/06/10 03:31:36;;;;;;;3.90;3.80;;;;;;;;;;4971307;28;20442;-68
2023/06/10 03:34:02;;;;;;;8.20;4.10;;;;;;;;;;4956802;28;20406;-69
2023/06/10 03:36:29;;;;;;;3.90;3.70;;;;;;;;;;4956297;28;20509;-69
2023/06/10 03:38:56;;;;;;;6.83;4.60;;;;;;;;;;4956200;28;20486;-68
2023/06/10 03:41:22;;;;;;;4.73;4.43;;;;;;;;;;4956399;28;20435;-68
2023/06/10 03:43:48;;;;;;;3.53;3.33;;;;;;;;;;4970900;28;20422;-69
2023/06/10 03:46:15;;;;;;;3.80;3.70;;;;;;;;;;4956110;28;20414;-68
2023/06/10 03:48:41;;;;;;;7.00;4.30;;;;;;;;;;4955908;28;20473;-69
2023/06/10 03:51:07;;;;;;;3.73;3.63;;;;;;;;;;4955928;28;20998;-69
2023/06/10 03:53:33;;;;;;;9.93;4.23;;;;;;;;;;4955963;28;20513;-68
2023/06/10 03:55:59;;;;;;;4.70;4.50;;;;;;;;;;4956223;28;20419;-68
2023/06/10 03:58:25;;;;;;;4.50;3.73;;;;;;;;;;4955841;28;20186;-69
2023/06/10 04:00:53;;;;;;;4.63;4.30;;;;;;;;;;4956361;28;20478;-68
2023/06/10 04:03:21;;;;;;;5.10;4.10;;;;;;;;;;4956450;28;20434;-68
2023/06/10 04:05:47;;;;;;;4.10;3.93;;;;;;;;;;4970544;28;20462;-69
2023/06/10 04:08:13;;;;;;;5.50;5.00;;;;;;;;;;4956296;28;20461;-68
2023/06/10 04:10:38;;;;;;;4.57;4.37;;;;;;;;;;4955603;28;20434;-68
2023/06/10 04:13:05;;;;;;;6.10;4.33;;;;;;;;;;4955891;28;20945;-68
2023/06/10 04:15:34;;;;;;;4.50;4.30;;;;;;;;;;4955874;28;20427;-69
2023/06/10 04:21:04;;;;;;;6.30;5.77;;;;;;;;;;4955410;29;20540;-68
2023/06/10 04:23:30;;;;;;;4.20;3.83;;;;;;;;;;4956476;28;20422;-68
2023/06/10 04:25:56;;;;;;;4.07;3.77;;;;;;;;;;4955346;28;20964;-68
2023/06/10 04:28:21;;;;;;;4.00;3.80;;;;;;;;;;4955455;28;20414;-68
2023/06/10 04:30:47;;;;;;;11.30;3.70;;;;;;;;;;4955402;28;20422;-68
2023/06/10 04:33:13;;;;;;;4.90;4.40;;;;;;;;;;4955623;28;20422;-68
2023/06/10 04:35:39;;;;;;;4.07;3.77;;;;;;;;;;4955321;28;20423;-68
2023/06/10 04:38:05;;;;;;;4.50;4.00;;;;;;;;;;4955351;28;20442;-69
2023/06/10 04:40:31;;;;;;;7.43;4.30;;;;;;;;;;4955401;28;20481;-68
2023/06/10 04:42:57;;;;;;;4.50;4.30;;;;;;;;;;4955205;28;20820;-69
2023/06/10 04:45:23;;;;;;;4.40;4.30;;;;;;;;;;4955135;28;20431;-68
2023/06/10 04:47:49;;;;;;;7.63;4.40;;;;;;;;;;4955100;28;20470;-68
2023/06/10 04:50:15;;;;;;;4.63;4.23;;;;;;;;;;4955039;28;20435;-68
2023/06/10 04:52:41;;;;;;;4.57;4.27;;;;;;;;;;4955770;28;20415;-68
2023/06/10 04:55:08;;;;;;;4.27;4.17;;;;;;;;;;4954685;28;20919;-68
2023/06/10 04:57:34;;;;;;;4.50;4.10;;;;;;;;;;4955285;28;20780;-68
2023/06/10 05:00:00;;;;;;;5.00;4.70;;;;;;;;;;4954907;28;21007;-68
2023/06/10 05:02:26;;;;;;;5.20;5.00;;;;;;;;;;4955154;28;20478;-68
2023/06/10 05:04:54;;;;;;;5.67;4.00;;;;;;;;;;4955322;28;20423;-68
2023/06/10 05:07:20;;;;;;;5.70;5.40;;;;;;;;;;4955156;28;20499;-68
2023/06/10 05:09:47;;;;;;;4.20;4.10;;;;;;;;;;4955122;28;20455;-68
2023/06/10 05:12:12;;;;;;;7.50;4.60;;;;;;;;;;4955215;28;20430;-68
2023/06/10 05:14:38;;;;;;;10.57;4.40;;;;;;;;;;4954750;28;20423;-68
2023/06/10 05:17:05;;;;;;;4.53;4.33;;;;;;;;;;4955051;28;20509;-68
2023/06/10 05:19:32;;;;;;;6.23;5.10;;;;;;;;;;4955462;28;20515;-68
2023/06/10 05:21:58;;;;;;;4.83;4.50;;;;;;;;;;4954970;28;20433;-68
2023/06/10 05:24:24;;;;;;;6.50;6.17;;;;;;;;;;4955013;28;20502;-68
2023/06/10 05:26:50;;;;;;;4.73;4.53;;;;;;;;;;4954545;28;20455;-68
2023/06/10 05:29:16;;;;;;;5.53;4.93;;;;;;;;;;4954871;28;20498;-68
2023/06/10 05:31:42;;;;;;;5.60;4.67;;;;;;;;;;4954837;28;20419;-69
2023/06/10 05:34:08;;;;;;;5.37;5.07;;;;;;;;;;4954769;28;20415;-69
2023/06/10 05:36:34;;;;;;;4.30;4.17;;;;;;;;;;4954680;28;20421;-70
2023/06/10 05:39:00;;;;;;;4.87;4.60;;;;;;;;;;4954731;28;20469;-69
2023/06/10 05:41:26;;;;;;;4.73;4.33;;;;;;;;;;4954526;28;20449;-68
2023/06/10 05:43:52;;;;;;;9.13;4.30;;;;;;;;;;4954636;28;20423;-69
2023/06/10 05:46:18;;;;;;;4.23;4.10;;;;;;;;;;4954624;28;20423;-69
2023/06/10 05:48:44;;;;;;;4.07;3.93;;;;;;;;;;4954745;28;20485;-69
2023/06/10 05:51:10;;;;;;;4.60;4.20;;;;;;;;;;4954403;28;20419;-69
2023/06/10 05:53:36;;;;;;;4.23;4.13;;;;;;;;;;4955357;28;20435;-69
2023/06/10 05:56:02;;;;;;;7.40;4.13;;;;;;;;;;4954247;28;20470;-70
2023/06/10 05:58:28;;;;;;;4.77;4.67;;;;;;;;;;4954624;28;20502;-69
2023/06/10 06:00:54;;;;;;;4.40;4.13;;;;;;;;;;4954544;28;20577;-70
2023/06/10 06:03:20;;;;;;;5.80;4.23;;;;;;;;;;4969104;28;20431;-69
2023/06/10 06:05:46;;;;;;;5.77;5.10;;;;;;;;;;4956089;28;20423;-69
2023/06/10 06:08:18;;;;;;;3.83;3.70;;;;;;;;;;4957800;28;20415;-70
2023/06/10 06:10:44;;;;;;;9.83;4.60;;;;;;;;;;4957828;28;20961;-69
2023/06/10 06:13:10;;;;;;;3.93;3.83;;;;;;;;;;4958023;28;20477;-69
2023/06/10 06:15:36;;;;;;;4.60;4.40;;;;;;;;;;4958054;28;20494;-68
2023/06/10 06:18:02;;;;;;;4.93;4.53;;;;;;;;;;4957610;28;20769;-68
2023/06/10 06:20:28;;;;;;;4.80;4.50;;;;;;;;;;4957464;28;20637;-69
2023/06/10 06:22:54;;;;;;;5.37;4.70;;;;;;;;;;4957821;28;20485;-69
2023/06/10 06:25:20;;;;;;;4.20;4.10;;;;;;;;;;4957841;28;20467;-69
2023/06/10 06:30:49;;;;;;;4.23;4.13;;;;;;;;;;4957566;29;20418;-70
2023/06/10 06:33:15;;;;;;;4.80;4.37;;;;;;;;;;4957433;28;20434;-69
2023/06/10 06:35:41;;;;;;;4.20;3.93;;;;;;;;;;4957594;28;20411;-69
2023/06/10 06:38:07;;;;;;;3.57;3.47;;;;;;;;;;4958116;28;20431;-68
2023/06/10 06:40:33;;;;;;;4.03;3.83;;;;;;;;;;4957643;28;20521;-68
2023/06/10 06:42:59;;;;;;;4.40;4.20;;;;;;;;;;4957606;28;20418;-68
2023/06/10 06:45:25;;;;;;;4.37;4.03;;;;;;;;;;4957203;28;20525;-69
2023/06/10 06:47:51;;;;;;;4.03;3.93;;;;;;;;;;4957012;28;20463;-69
2023/06/10 06:50:17;;;;;;;4.67;4.33;;;;;;;;;;4957242;28;20430;-69
2023/06/10 06:52:43;;;;;;;5.07;4.77;;;;;;;;;;4957292;28;20542;-68
2023/06/10 06:55:09;;;;;;;4.87;4.77;;;;;;;;;;4957118;28;20904;-69
2023/06/10 06:57:36;;;;;;;4.10;3.90;;;;;;;;;;4956872;28;20415;-70
2023/06/10 07:00:02;;;;;;;4.73;4.53;;;;;;;;;;4956822;28;21002;-70
2023/06/10 07:02:28;;;;;;;5.23;4.27;;;;;;;;;;4956891;28;20418;-70
2023/06/10 07:04:55;;;;;;;15.50;5.20;;;;;;;;;;4956818;28;20427;-69
2023/06/10 07:07:21;;;;;;;4.27;4.10;;;;;;;;;;4957052;28;20411;-68
2023/06/10 07:09:47;;;;;;;3.87;3.80;;;;;;;;;;4957070;28;20419;-69
2023/06/10 07:12:13;;;;;;;4.43;4.33;;;;;;;;;;4956761;28;20938;-68
2023/06/10 07:14:39;;;;;;;4.20;3.90;;;;;;;;;;4956601;28;20790;-68
2023/06/10 07:17:05;;;;;;;7.27;4.33;;;;;;;;;;4956273;28;20410;-69
2023/06/10 07:19:31;;;;;;;4.07;3.83;;;;;;;;;;4957336;28;20463;-68
2023/06/10 07:21:57;;;;;;;4.97;4.77;;;;;;;;;;4956149;28;20431;-68
2023/06/10 07:24:23;;;;;;;4.43;4.23;;;;;;;;;;4956396;28;20450;-68
2023/06/10 07:26:49;;;;;;;4.23;3.90;;;;;;;;;;4956673;28;20458;-69
2023/06/10 07:29:15;;;;;;;4.77;4.57;;;;;;;;;;4956444;28;20898;-68
2023/06/10 07:31:42;;;;;;;4.63;4.23;;;;;;;;;;4971203;28;20430;-68
2023/06/10 07:34:08;;;;;;;4.57;4.17;;;;;;;;;;4956256;28;20587;-68
2023/06/10 07:36:34;;;;;;;4.60;4.40;;;;;;;;;;4956510;28;20505;-69
2023/06/10 07:39:00;;;;;;;4.53;4.37;;;;;;;;;;4956066;28;20419;-68
2023/06/10 07:41:26;;;;;;;4.30;4.10;;;;;;;;;;4956411;28;20442;-68
2023/06/10 07:43:54;;;;;;;7.50;4.68;;;;;;;;;;4955538;28;20415;-68
2023/06/10 07:46:24;;;;;;;4.43;4.30;;;;;;;;;;4956400;28;20195;-68
2023/06/10 07:48:50;;;;;;;5.00;4.80;;;;;;;;;;4955940;28;20467;-67
2023/06/10 07:51:16;;;;;;;5.23;4.90;;;;;;;;;;4956375;28;20445;-70
2023/06/10 07:53:43;;;;;;;5.00;4.70;;;;;;;;;;4955913;28;20421;-69
2023/06/10 07:56:09;;;;;;;5.23;4.87;;;;;;;;;;4955262;28;20419;-68
2023/06/10 07:58:35;;;;;;;5.60;5.30;;;;;;;;;;4954045;28;20421;-68
2023/06/10 08:01:01;;;;;;;9.10;5.97;;;;;;;;;;4955262;28;20606;-68
2023/06/10 08:03:26;;;;;;;5.70;5.37;;;;;;;;;;4955075;28;20233;-68
2023/06/10 08:05:52;;;;;;;5.10;4.80;;;;;;;;;;4955579;28;20923;-68
2023/06/10 08:08:18;;;;;;;6.97;4.10;;;;;;;;;;4955758;28;20510;-68
2023/06/10 08:10:44;;;;;;;6.47;6.03;;;;;;;;;;4955724;28;20423;-68
2023/06/10 08:13:10;;;;;;;5.60;5.30;;;;;;;;;;4956168;28;20422;-68
2023/06/10 08:15:36;;;;;;;4.93;4.63;;;;;;;;;;4954832;28;20422;-69
2023/06/10 08:18:02;;;;;;;5.40;5.10;;;;;;;;;;4955820;28;20940;-68
2023/06/10 08:20:28;;;;;;;5.13;5.03;;;;;;;;;;4955406;28;20906;-69
2023/06/10 08:22:54;;;;;;;5.43;5.00;;;;;;;;;;4955376;28;20419;-69
2023/06/10 08:25:22;;;;;;;5.80;5.43;;;;;;;;;;4955680;28;20429;-69
2023/06/10 08:27:48;;;;;;;4.87;4.67;;;;;;;;;;4955174;28;20503;-69
2023/06/10 08:30:14;;;;;;;6.23;5.77;;;;;;;;;;4954958;28;20434;-68
2023/06/10 08:32:40;;;;;;;4.80;4.60;;;;;;;;;;4955600;28;20453;-68
2023/06/10 08:35:06;;;;;;;5.80;5.53;;;;;;;;;;4955301;28;21045;-68
2023/06/10 08:37:32;;;;;;;9.93;5.57;;;;;;;;;;4955252;28;20519;-69
2023/06/10 08:39:58;;;;;;;5.53;5.33;;;;;;;;;;4955361;28;20558;-68
2023/06/10 08:42:28;;;;;;;5.23;5.03;;;;;;;;;;4955159;28;20470;-69
2023/06/10 08:44:55;;;;;;;4.80;4.60;;;;;;;;;;4955304;28;20411;-70
2023/06/10 08:47:23;;;;;;;8.63;4.73;;;;;;;;;;4958508;28;20470;-68
2023/06/10 08:49:49;;;;;;;7.23;5.60;;;;;;;;;;4962376;28;20462;-67
2023/06/10 08:52:16;;;;;;;5.07;4.70;;;;;;;;;;4955796;28;20587;-71
2023/06/10 08:54:43;;;;;;;5.30;5.00;;;;;;;;;;4955289;28;20442;-68
2023/06/10 08:57:09;;;;;;;5.90;5.60;;;;;;;;;;4954990;28;20427;-68
2023/06/10 08:59:35;;;;;;;5.10;4.90;;;;;;;;;;4955175;28;20521;-69
2023/06/10 09:02:02;;;;;;;6.30;5.80;;;;;;;;;;4954960;28;20419;-68
2023/06/10 09:04:29;;;;;;;4.13;4.03;;;;;;;;;;4955006;28;20514;-71
2023/06/10 09:06:56;;;;;;;6.00;5.50;;;;;;;;;;4953894;28;20458;-68
2023/06/10 09:09:23;;;;;;;5.57;5.37;;;;;;;;;;4955411;28;20431;-69
2023/06/10 09:11:49;;;;;;;6.23;5.93;;;;;;;;;;4955158;28;20419;-69
2023/06/10 09:14:16;;;;;;;6.60;6.30;;;;;;;;;;4954905;28;20485;-70
2023/06/10 09:16:43;;;;;;;7.30;5.43;;;;;;;;;;4954906;28;20427;-68
2023/06/10 09:19:09;;;;;;;4.90;4.80;;;;;;;;;;4954828;28;20457;-69
2023/06/10 09:21:38;;;;;;;6.40;6.00;;;;;;;;;;4955188;28;20510;-68
2023/06/10 09:24:05;;;;;;;6.37;5.97;;;;;;;;;;4954958;28;20416;-68
2023/06/10 09:26:31;;;;;;;18.93;6.73;;;;;;;;;;4954635;28;20435;-68
2023/06/10 09:29:04;;;;;;;5.40;5.10;;;;;;;;;;4954942;28;20519;-67
2023/06/10 09:31:30;;;;;;;6.57;6.27;;;;;;;;;;4954681;28;20426;-70
2023/06/10 09:34:05;;;;;;;5.13;4.87;;;;;;;;;;4954886;28;20411;-69
2023/06/10 09:36:31;;;;;;;3.43;3.30;;;;;;;;;;4954901;28;20406;-69
2023/06/10 09:38:57;;;;;;;7.67;5.63;;;;;;;;;;4954512;28;20908;-68
2023/06/10 09:41:32;;;;;;;13.70;6.43;;;;;;;;;;4957733;28;20562;-68
2023/06/10 09:43:58;;;;;;;6.30;5.97;;;;;;;;;;4958667;28;20501;-68
2023/06/10 09:46:24;;;;;;;6.73;6.43;;;;;;;;;;4958301;28;20462;-68
2023/06/10 09:48:50;;;;;;;8.03;5.17;;;;;;;;;;4958347;28;20508;-69
2023/06/10 09:51:19;;;;;;;7.27;5.90;;;;;;;;;;4958528;28;20891;-68
2023/06/10 09:53:50;;;;;;;4.47;4.37;;;;;;;;;;4958113;28;20457;-68
2023/06/10 09:56:16;;;;;;;5.97;5.47;;;;;;;;;;4958257;28;20427;-68
2023/06/10 09:58:43;;;;;;;5.73;5.43;;;;;;;;;;4958172;28;20430;-68
2023/06/10 10:01:10;;;;;;;6.10;5.77;;;;;;;;;;4958323;28;20514;-68
2023/06/10 10:03:46;;;;;;;5.30;5.07;;;;;;;;;;4958242;28;20419;-69
2023/06/10 10:06:12;;;;;;;6.00;5.70;;;;;;;;;;4958450;28;20466;-69
2023/06/10 10:08:38;;;;;;;6.13;5.50;;;;;;;;;;4957945;28;20425;-69
2023/06/10 10:11:04;;;;;;;7.13;5.27;;;;;;;;;;4958146;28;20427;-70
2023/06/10 10:13:34;;;;;;;4.93;4.77;;;;;;;;;;4958123;28;20426;-69
2023/06/10 10:16:02;;;;;;;6.60;6.20;;;;;;;;;;4958100;28;20892;-68
2023/06/10 10:18:30;;;;;;;5.93;5.60;;;;;;;;;;4958060;28;20422;-69
2023/06/10 10:20:57;;;;;;;6.63;6.27;;;;;;;;;;4957667;28;20486;-68
2023/06/10 10:23:30;;;;;;;6.97;6.60;;;;;;;;;;4972579;28;20422;-68
2023/06/10 10:25:57;;;;;;;4.37;4.07;;;;;;;;;;4957608;28;20439;-70
2023/06/10 10:28:26;;;;;;;5.30;4.87;;;;;;;;;;4957926;28;20423;-68
2023/06/10 10:30:53;;;;;;;6.50;6.30;;;;;;;;;;4957487;28;20780;-67
2023/06/10 10:33:22;;;;;;;5.87;5.60;;;;;;;;;;4956195;29;20423;-68
2023/06/10 10:35:48;;;;;;;6.57;5.93;;;;;;;;;;4957774;28;20402;-68
2023/06/10 10:38:14;;;;;;;7.33;5.33;;;;;;;;;;4957248;28;20448;-68
2023/06/10 10:40:41;;;;;;;5.87;5.53;;;;;;;;;;4957144;28;20470;-68
2023/06/10 10:43:08;;;;;;;5.13;4.93;;;;;;;;;;4957472;28;20418;-70
2023/06/10 10:45:34;;;;;;;5.70;5.20;;;;;;;;;;4957368;28;20431;-69
2023/06/10 10:48:05;;;;;;;4.50;4.30;;;;;;;;;;4957258;28;20415;-70
2023/06/10 10:50:31;;;;;;;3.70;3.60;;;;;;;;;;4956957;28;20471;-68
2023/06/10 10:53:03;;;;;;;5.90;5.57;;;;;;;;;;4956253;28;20538;-68
2023/06/10 10:55:29;;;;;;;5.50;5.20;;;;;;;;;;4956916;28;20490;-68
2023/06/10 10:57:56;;;;;;;7.10;5.43;;;;;;;;;;4957215;28;20502;-70
2023/06/10 11:00:30;;;;;;;6.03;5.77;;;;;;;;;;4956945;28;20475;-69
2023/06/10 11:02:59;;;;;;;5.50;5.30;;;;;;;;;;4957401;28;20529;-70
2023/06/10 11:05:32;;;;;;;5.03;4.93;;;;;;;;;;4956768;28;20411;-69
2023/06/10 11:11:17;;;;;;;5.40;5.20;;;;;;;;;;4956707;29;20534;-68
2023/06/10 11:13:58;;;;;;;5.23;5.00;;;;;;;;;;4956769;28;20403;-68
2023/06/10 11:16:26;;;;;;;9.60;6.23;;;;;;;;;;4956865;28;20415;-69
2023/06/10 11:18:54;;;;;;;4.80;4.60;;;;;;;;;;4956571;28;20423;-69
2023/06/10 11:21:20;;;;;;;4.60;4.40;;;;;;;;;;4956613;28;20482;-69
2023/06/10 11:23:47;;;;;;;5.50;5.30;;;;;;;;;;4956975;28;20876;-69
2023/06/10 11:26:15;;;;;;;5.17;4.97;;;;;;;;;;4956866;28;20434;-69
2023/06/10 11:28:42;;;;;;;5.03;4.80;;;;;;;;;;4956352;28;21006;-69
2023/06/10 11:31:10;;;;;;;6.30;5.27;;;;;;;;;;4956830;28;20422;-69
2023/06/10 11:33:39;;;;;;;5.63;5.43;;;;;;;;;;4956683;28;20855;-68
2023/06/10 11:36:07;;;;;;;8.07;4.57;;;;;;;;;;4956168;28;20415;-69
2023/06/10 11:38:33;;;;;;;5.27;4.97;;;;;;;;;;4956485;28;20445;-69
2023/06/10 11:41:00;;;;;;;9.07;5.40;;;;;;;;;;4956144;28;20964;-69
2023/06/10 11:43:26;;;;;;;4.07;3.97;;;;;;;;;;4956038;28;20963;-69
2023/06/10 11:45:55;;;;;;;5.80;5.50;;;;;;;;;;4955945;28;20434;-69
2023/06/10 11:48:21;;;;;;;4.70;4.50;;;;;;;;;;4956297;28;20780;-68
2023/06/10 11:50:47;;;;;;;3.80;3.60;;;;;;;;;;4955851;28;20828;-68
2023/06/10 11:53:14;;;;;;;5.07;4.77;;;;;;;;;;4955805;28;20942;-69
2023/06/10 11:55:43;;;;;;;4.83;4.63;;;;;;;;;;4956064;28;20415;-68
2023/06/10 11:58:13;;;;;;;3.90;3.80;;;;;;;;;;4956314;28;20427;-68
2023/06/10 12:00:48;;;;;;;3.37;3.37;;;;;;;;;;4955688;28;21076;-68
2023/06/10 12:03:14;;;;;;;5.10;4.90;;;;;;;;;;4955516;28;20425;-68
2023/06/10 12:05:40;;;;;;;5.53;5.23;;;;;;;;;;4955795;28;20478;-68
2023/06/10 12:08:13;;;;;;;4.90;4.60;;;;;;;;;;4955583;28;20423;-67
2023/06/10 12:10:40;;;;;;;3.23;3.13;;;;;;;;;;4956457;28;20857;-69
2023/06/10 12:13:07;;;;;;;5.33;5.13;;;;;;;;;;4955498;28;20871;-68
2023/06/10 12:15:33;;;;;;;4.83;4.73;;;;;;;;;;4955853;28;20458;-68
2023/06/10 12:17:59;;;;;;;5.47;4.93;;;;;;;;;;4955742;28;20830;-68
2023/06/10 12:20:27;;;;;;;4.90;4.50;;;;;;;;;;4955415;28;20478;-68
2023/06/10 12:22:53;;;;;;;4.90;4.60;;;;;;;;;;4955175;28;20419;-68
2023/06/10 12:25:26;;;;;;;9.07;5.60;;;;;;;;;;4955150;28;20513;-68
2023/06/10 12:27:53;;;;;;;4.70;4.40;;;;;;;;;;4955372;28;20395;-68
2023/06/10 12:30:23;;;;;;;5.30;4.87;;;;;;;;;;4955416;28;20426;-67
2023/06/10 12:32:49;;;;;;;4.40;4.30;;;;;;;;;;4955063;28;20459;-68
2023/06/10 12:35:19;;;;;;;4.60;4.40;;;;;;;;;;4955104;28;20911;-67
2023/06/10 12:38:11;;;;;;;5.17;4.80;;;;;;;;;;4955047;28;20433;-68
2023/06/10 12:40:40;;;;;;;4.70;4.57;;;;;;;;;;4955658;28;20481;-69
2023/06/10 12:43:06;;;;;;;4.93;4.73;;;;;;;;;;4955273;28;20419;-67
2023/06/10 12:45:33;;;;;;;5.17;4.83;;;;;;;;;;4955113;28;20470;-68
2023/06/10 12:48:08;;;;;;;4.53;4.43;;;;;;;;;;4955135;28;20419;-68
2023/06/10 12:50:35;;;;;;;5.83;5.30;;;;;;;;;;4955311;28;20478;-68
2023/06/10 12:53:01;;;;;;;5.30;5.10;;;;;;;;;;4954875;28;20431;-68
2023/06/10 12:55:28;;;;;;;4.60;4.40;;;;;;;;;;4955260;28;20433;-69
2023/06/10 12:57:55;;;;;;;4.90;4.50;;;;;;;;;;4954927;28;20514;-67
2023/06/10 13:00:21;;;;;;;4.97;4.60;;;;;;;;;;4954864;28;20472;-68
2023/06/10 13:02:48;;;;;;;4.60;4.40;;;;;;;;;;4955043;28;20423;-68
2023/06/10 13:05:14;;;;;;;5.60;5.30;;;;;;;;;;4954694;28;20579;-68
2023/06/10 13:07:41;;;;;;;4.40;4.20;;;;;;;;;;4955190;28;20923;-68
2023/06/10 13:10:07;;;;;;;4.77;4.57;;;;;;;;;;4955168;28;20514;-68
2023/06/10 13:12:33;;;;;;;4.10;4.00;;;;;;;;;;4954648;28;20430;-68
2023/06/10 13:15:00;;;;;;;4.53;3.97;;;;;;;;;;4954230;28;20502;-68
2023/06/10 13:17:26;;;;;;;4.40;4.30;;;;;;;;;;4954804;28;20458;-69
2023/06/10 13:19:52;;;;;;;4.47;4.07;;;;;;;;;;4954574;28;20601;-68
2023/06/10 13:22:19;;;;;;;4.50;3.70;;;;;;;;;;4954571;28;20510;-68
2023/06/10 13:24:46;;;;;;;4.77;4.57;;;;;;;;;;4954703;28;20433;-68
2023/06/10 13:27:13;;;;;;;4.70;4.50;;;;;;;;;;4955550;28;20563;-68
2023/06/10 13:29:40;;;;;;;3.33;3.23;;;;;;;;;;4954895;28;20422;-68
2023/06/10 13:32:06;;;;;;;4.53;3.80;;;;;;;;;;4954818;28;20419;-68
2023/06/10 13:34:32;;;;;;;3.33;3.33;;;;;;;;;;4954526;28;20427;-68
2023/06/10 13:36:59;;;;;;;4.73;4.10;;;;;;;;;;4954566;28;20579;-68
2023/06/10 13:39:25;;;;;;;3.90;3.80;;;;;;;;;;4954429;28;20922;-68
2023/06/10 13:41:51;;;;;;;3.30;3.20;;;;;;;;;;4954759;28;20437;-67
2023/06/10 13:44:17;;;;;;;6.40;3.33;;;;;;;;;;4954811;28;20426;-67
2023/06/10 13:46:43;;;;;;;3.30;3.10;;;;;;;;;;4954709;28;20426;-68
2023/06/10 13:49:09;;;;;;;3.80;3.70;;;;;;;;;;4954561;28;20868;-68
2023/06/10 13:51:35;;;;;;;3.73;3.53;;;;;;;;;;4954729;28;20163;-68
2023/06/10 13:54:01;;;;;;;3.30;3.17;;;;;;;;;;4954350;28;20433;-68
2023/06/10 13:56:28;;;;;;;3.97;3.77;;;;;;;;;;4954425;28;20410;-69
2023/06/10 13:58:54;;;;;;;3.20;3.20;;;;;;;;;;4954391;28;20449;-68
2023/06/10 14:01:20;;;;;;;3.47;3.27;;;;;;;;;;4954914;28;21010;-68
2023/06/10 14:03:46;;;;;;;3.10;3.03;;;;;;;;;;4954816;28;20407;-68
2023/06/10 14:06:18;;;;;;;3.87;3.67;;;;;;;;;;4954621;28;20446;-68
2023/06/10 14:08:44;;;;;;;3.50;3.40;;;;;;;;;;4954636;28;20677;-68
2023/06/10 14:11:10;;;;;;;3.33;3.23;;;;;;;;;;4954596;28;20430;-68
2023/06/10 14:13:38;;;;;;;3.53;3.53;;;;;;;;;;4954265;28;20766;-68
2023/06/10 14:16:04;;;;;;;3.97;3.87;;;;;;;;;;4954063;28;20546;-68
2023/06/10 14:18:30;;;;;;;3.90;3.80;;;;;;;;;;4954460;28;20473;-68
2023/06/10 14:20:56;;;;;;;3.40;3.40;;;;;;;;;;4954115;28;20478;-68
2023/06/10 14:23:24;;;;;;;4.13;4.03;;;;;;;;;;4954358;28;20415;-68
2023/06/10 14:25:50;;;;;;;3.53;3.40;;;;;;;;;;4954143;28;20441;-68
2023/06/10 14:28:16;;;;;;;3.30;3.20;;;;;;;;;;4956177;28;20948;-69
2023/06/10 14:30:42;;;;;;;3.87;3.67;;;;;;;;;;4956707;28;20435;-69
2023/06/10 14:33:08;;;;;;;9.00;3.80;;;;;;;;;;4956827;28;20423;-68
2023/06/10 14:35:34;;;;;;;3.57;3.47;;;;;;;;;;4957376;28;20462;-68
2023/06/10 14:38:00;;;;;;;3.27;3.07;;;;;;;;;;4957198;28;20415;-68
2023/06/10 14:40:28;;;;;;;6.70;3.70;;;;;;;;;;4956229;28;20474;-68
2023/06/10 14:42:54;;;;;;;2.87;2.87;;;;;;;;;;4955895;28;20451;-68
2023/06/10 14:45:20;;;;;;;2.50;2.50;;;;;;;;;;4956356;28;20454;-68
2023/06/10 14:47:47;;;;;;;2.93;2.93;;;;;;;;;;4957086;28;20415;-68
2023/06/10 14:50:13;;;;;;;3.37;3.27;;;;;;;;;;4957019;28;20481;-68
2023/06/10 14:52:39;;;;;;;3.03;2.93;;;;;;;;;;4957095;28;20415;-68